createdAt,value
2024-05-09T00:00:53.268Z,21.65
2024-05-09T00:05:57.375Z,22.15
2024-05-09T00:10:59.392Z,21.45
2024-05-09T00:16:01.235Z,19.55
2024-05-09T00:26:25.622Z,19.00
2024-05-09T00:31:31.940Z,22.23
2024-05-09T00:36:33.714Z,21.63
2024-05-09T00:41:35.547Z,20.73
2024-05-09T00:46:37.437Z,24.58
2024-05-09T00:51:42.327Z,24.25
2024-05-09T00:56:44.551Z,21.27
2024-05-09T01:01:46.787Z,21.20
2024-05-09T01:06:48.559Z,24.65
2024-05-09T01:11:50.528Z,23.83
2024-05-09T01:16:52.473Z,21.83
2024-05-09T01:21:54.356Z,24.60
2024-05-09T01:26:56.146Z,23.80
2024-05-09T01:32:00.795Z,22.45
2024-05-09T01:37:02.654Z,23.40
2024-05-09T01:42:04.752Z,23.58
2024-05-09T01:47:06.681Z,22.65
2024-05-09T01:52:11.217Z,23.90
2024-05-09T01:57:16.263Z,23.10
2024-05-09T02:02:19.258Z,25.08
2024-05-09T02:07:27.479Z,24.23
2024-05-09T02:12:29.436Z,22.58
2024-05-09T02:17:31.657Z,24.67
2024-05-09T02:22:36.814Z,23.92
2024-05-09T02:32:54.510Z,26.33
2024-05-09T02:37:56.480Z,24.15
2024-05-09T02:43:04.305Z,23.67
2024-05-09T02:48:07.168Z,26.08
2024-05-09T02:53:10.067Z,24.05
2024-05-09T02:58:14.437Z,28.23
2024-05-09T03:03:17.667Z,22.08
2024-05-09T03:08:19.723Z,25.25
2024-05-09T03:13:21.625Z,25.73
2024-05-09T03:18:27.656Z,26.25
2024-05-09T03:29:00.798Z,28.67
2024-05-09T03:34:05.125Z,25.83
2024-05-09T03:39:12.327Z,26.88
2024-05-09T03:44:15.442Z,25.70
2024-05-09T03:49:20.248Z,26.15
2024-05-09T03:54:22.114Z,26.70
2024-05-09T03:59:25.221Z,26.00
2024-05-09T04:04:27.262Z,25.52
2024-05-09T04:09:29.064Z,27.38
2024-05-09T04:14:32.389Z,22.90
2024-05-09T04:19:34.694Z,29.55
2024-05-09T04:24:39.362Z,27.52
2024-05-09T04:29:41.779Z,27.70
2024-05-09T04:34:43.834Z,26.13
2024-05-09T04:39:56.035Z,24.67
2024-05-09T04:44:58.913Z,25.35
2024-05-09T04:50:01.696Z,29.40
2024-05-09T04:55:03.799Z,27.98
2024-05-09T05:00:14.600Z,24.73
2024-05-09T05:05:20.201Z,25.40
2024-05-09T05:10:29.521Z,22.35
2024-05-09T05:15:37.313Z,24.27
2024-05-09T05:20:49.869Z,23.52
2024-05-09T05:25:55.178Z,24.02
2024-05-09T05:31:05.530Z,26.27
2024-05-09T05:36:23.863Z,26.35
2024-05-09T05:41:42.357Z,27.20
2024-05-09T05:46:50.245Z,24.45
2024-05-09T05:52:08.183Z,30.95
2024-05-09T05:57:23.546Z,31.52
2024-05-09T06:02:25.290Z,32.60
2024-05-09T06:07:27.160Z,28.02
2024-05-09T06:12:28.919Z,31.05
2024-05-09T06:17:33.498Z,33.05
2024-05-09T06:22:37.557Z,32.47
2024-05-09T06:27:40.049Z,34.70
2024-05-09T06:32:45.032Z,28.85
2024-05-09T06:37:49.799Z,32.40
2024-05-09T06:42:51.455Z,34.72
2024-05-09T06:47:53.305Z,34.72
2024-05-09T06:52:55.071Z,30.70
2024-05-09T06:57:56.745Z,31.95
2024-05-09T07:03:00.123Z,35.92
2024-05-09T07:08:06.747Z,34.65
2024-05-09T07:13:12.641Z,35.38
2024-05-09T07:18:17.203Z,36.83
2024-05-09T07:23:20.571Z,38.70
2024-05-09T07:28:22.236Z,34.30
2024-05-09T07:33:24.690Z,32.70
2024-05-09T07:38:27.107Z,33.17
2024-05-09T07:43:28.704Z,33.35
2024-05-09T07:50:01.397Z,32.30
2024-05-09T07:53:54.765Z,39.10
2024-05-09T07:58:58.657Z,37.15
2024-05-09T08:04:00.438Z,35.22
2024-05-09T08:09:07.687Z,35.13
2024-05-09T08:14:12.244Z,35.03
2024-05-09T08:19:14.055Z,43.42
2024-05-09T08:24:15.828Z,34.70
2024-05-09T08:29:17.502Z,40.28
2024-05-09T08:34:19.123Z,40.58
2024-05-09T08:39:20.863Z,33.97
2024-05-09T08:44:23.381Z,32.17
2024-05-09T08:49:26.153Z,33.40
2024-05-09T08:54:31.995Z,37.55
2024-05-09T08:59:44.655Z,33.30
2024-05-09T09:05:08.014Z,33.60
2024-05-09T09:10:21.087Z,34.80
2024-05-09T09:15:33.737Z,29.48
2024-05-09T09:20:57.926Z,31.73
2024-05-09T09:26:03.381Z,29.92
2024-05-09T09:31:05.372Z,24.92
2024-05-09T09:36:11.604Z,23.27
2024-05-09T09:41:18.882Z,23.10
2024-05-09T09:46:21.336Z,22.63
2024-05-09T09:51:33.658Z,20.65
2024-05-09T09:56:42.633Z,20.33
2024-05-09T10:01:48.961Z,25.38
2024-05-09T10:12:15.135Z,22.48
2024-05-09T10:17:17.362Z,11.30
2024-05-09T10:22:28.054Z,8.40
2024-05-09T10:27:33.611Z,9.85
2024-05-09T10:32:45.518Z,7.95
2024-05-09T10:37:48.255Z,5.55
2024-05-09T10:42:50.108Z,5.88
2024-05-09T10:48:13.538Z,6.78
2024-05-09T10:53:18.044Z,11.13
2024-05-09T10:58:28.565Z,6.85
2024-05-09T11:03:30.727Z,10.30
2024-05-09T11:08:33.986Z,12.25
2024-05-09T11:13:38.183Z,9.82
2024-05-09T11:18:40.371Z,10.93
2024-05-09T11:23:44.553Z,10.02
2024-05-09T11:28:46.300Z,10.57
2024-05-09T11:33:48.269Z,10.73
2024-05-09T11:44:11.166Z,10.70
2024-05-09T11:49:20.260Z,9.55
2024-05-09T11:54:22.739Z,12.45
2024-05-09T11:59:29.282Z,11.02
2024-05-09T12:04:32.592Z,11.43
2024-05-09T12:09:43.401Z,9.43
2024-05-09T12:14:45.175Z,9.82
2024-05-09T12:19:51.314Z,10.45
2024-05-09T12:24:54.644Z,9.63
2024-05-09T12:29:58.343Z,9.38
2024-05-09T12:35:00.833Z,9.43
2024-05-09T12:40:03.730Z,13.77
2024-05-09T12:45:08.962Z,11.02
2024-05-09T12:50:21.915Z,10.70
2024-05-09T12:55:33.792Z,14.73
2024-05-09T13:00:43.329Z,12.88
2024-05-09T13:05:54.626Z,13.57
2024-05-09T13:10:59.215Z,12.25
2024-05-09T13:16:01.172Z,12.55
2024-05-09T13:21:03.260Z,11.50
2024-05-09T13:26:05.042Z,13.25
2024-05-09T13:31:07.030Z,12.10
2024-05-09T13:36:08.674Z,11.65
2024-05-09T13:41:10.267Z,15.25
2024-05-09T13:46:12.106Z,11.98
2024-05-09T13:51:13.884Z,14.63
2024-05-09T13:56:15.476Z,19.35
2024-05-09T14:01:17.239Z,11.57
2024-05-09T14:06:19.287Z,13.27
2024-05-09T14:11:22.662Z,11.10
2024-05-09T14:16:24.510Z,8.10
2024-05-09T14:21:26.235Z,9.73
2024-05-09T14:26:28.339Z,11.15
2024-05-09T14:31:30.214Z,12.10
2024-05-09T14:36:33.597Z,11.80
2024-05-09T14:41:38.159Z,11.75
2024-05-09T14:46:42.332Z,11.40
2024-05-09T14:51:47.807Z,11.43
2024-05-09T14:56:53.893Z,10.88
2024-05-09T15:01:55.614Z,10.95
2024-05-09T15:06:59.649Z,11.93
2024-05-09T15:12:01.586Z,13.77
2024-05-09T15:17:03.318Z,13.23
2024-05-09T15:22:04.916Z,12.05
2024-05-09T15:27:06.713Z,14.20
2024-05-09T15:32:08.620Z,13.82
2024-05-09T15:37:10.397Z,13.15
2024-05-09T15:42:12.010Z,11.05
2024-05-09T15:47:13.694Z,10.80
2024-05-09T15:52:17.421Z,10.48
2024-05-09T15:57:19.342Z,9.70
2024-05-09T16:02:21.362Z,11.80
2024-05-09T16:07:25.438Z,10.20
2024-05-09T16:12:27.111Z,11.18
2024-05-09T16:17:28.941Z,11.40
2024-05-09T16:22:30.737Z,11.73
2024-05-09T16:27:32.565Z,12.85
2024-05-09T16:32:36.226Z,12.60
2024-05-09T16:37:37.827Z,11.07
2024-05-09T16:42:39.597Z,12.63
2024-05-09T16:47:41.440Z,14.48
2024-05-09T16:52:43.250Z,16.02
2024-05-09T16:57:45.069Z,15.27
2024-05-09T17:02:46.709Z,17.58
2024-05-09T17:13:42.777Z,16.95
2024-05-09T17:18:45.352Z,18.27
2024-05-09T17:23:47.399Z,22.55
2024-05-09T17:28:49.408Z,20.13
2024-05-09T17:33:51.393Z,17.95
2024-05-09T17:38:53.477Z,18.42
2024-05-09T17:43:55.244Z,16.20
2024-05-09T17:48:59.583Z,17.85
2024-05-09T17:54:02.647Z,15.30
2024-05-09T17:59:11.546Z,15.05
2024-05-09T18:04:13.524Z,18.55
2024-05-09T18:09:15.187Z,15.23
2024-05-09T18:14:19.647Z,13.60
2024-05-09T18:19:21.782Z,15.77
2024-05-09T18:24:23.581Z,14.43
2024-05-09T18:29:26.249Z,14.18
2024-05-09T18:34:31.114Z,15.18
2024-05-09T18:39:33.171Z,16.20
2024-05-09T18:44:35.004Z,14.00
2024-05-09T18:49:36.911Z,13.55
2024-05-09T18:54:39.508Z,14.02
2024-05-09T18:59:43.519Z,12.27
2024-05-09T19:04:45.330Z,14.10
2024-05-09T19:09:47.482Z,13.50
2024-05-09T19:14:49.124Z,13.63
2024-05-09T19:19:50.887Z,11.32
2024-05-09T19:24:52.724Z,13.63
2024-05-09T19:29:57.213Z,12.45
2024-05-09T19:34:59.326Z,12.02
2024-05-09T19:40:08.539Z,13.40
2024-05-09T19:45:17.473Z,14.63
2024-05-09T19:50:26.789Z,11.70
2024-05-09T19:55:40.266Z,12.80
2024-05-09T20:00:43.834Z,13.35
2024-05-09T20:05:47.433Z,11.32
2024-05-09T20:10:49.475Z,14.88
2024-05-09T20:15:51.477Z,14.63
2024-05-09T20:20:54.114Z,11.75
2024-05-09T20:25:56.043Z,15.18
2024-05-09T20:30:58.092Z,11.35
2024-05-09T20:36:04.154Z,13.40
2024-05-09T20:41:05.741Z,11.20
2024-05-09T20:46:07.360Z,10.95
2024-05-09T20:51:10.265Z,13.20
2024-05-09T20:56:21.434Z,13.32
2024-05-09T21:01:23.310Z,10.65
2024-05-09T21:06:24.944Z,12.95
2024-05-09T21:11:26.502Z,11.23
2024-05-09T21:16:28.341Z,12.60
2024-05-09T21:21:30.146Z,11.07
2024-05-09T21:26:32.163Z,15.32
2024-05-09T21:31:34.206Z,12.38
2024-05-09T21:36:35.929Z,13.32
2024-05-09T21:41:37.557Z,12.65
2024-05-09T21:46:39.232Z,13.15
2024-05-09T21:51:40.871Z,16.58
2024-05-09T21:56:42.556Z,18.33
2024-05-09T22:01:46.566Z,15.07
2024-05-09T22:06:51.680Z,17.73
2024-05-09T22:11:54.494Z,14.15
2024-05-09T22:16:59.358Z,13.32
2024-05-09T22:22:01.243Z,15.20
2024-05-09T22:27:03.414Z,17.48
2024-05-09T22:32:05.786Z,14.98
2024-05-09T22:37:08.234Z,15.65
2024-05-09T22:42:10.008Z,14.75
2024-05-09T22:47:14.234Z,16.20
2024-05-09T22:52:16.480Z,15.32
2024-05-09T22:57:21.428Z,16.27
2024-05-09T23:02:23.297Z,15.32
2024-05-09T23:07:26.083Z,18.40
2024-05-09T23:12:32.149Z,15.95
2024-05-09T23:17:34.090Z,15.98
2024-05-09T23:22:37.287Z,16.02
2024-05-09T23:27:40.360Z,18.10
2024-05-09T23:32:42.322Z,16.23
2024-05-09T23:37:46.489Z,17.70
2024-05-09T23:42:51.263Z,16.42
2024-05-09T23:47:53.505Z,15.93
2024-05-09T23:52:55.267Z,16.33
2024-05-09T23:57:57.393Z,17.13
